Time;durP1;ratioP1;P1;durP2;ratioP2;P2;SDS_P1;SDS_P2;PMS_P1;PMS_P2;Temp;Humidity;BMP_temperature;BMP_pressure;BME280_temperature;BME280_humidity;BME280_pressure;Samples;Min_cycle;Max_cycle;Signal;HPM_P1;HPM_P2
2022/05/12 00:00:49;;;;;;;19.38;5.72;;;;;;;13.41;77.77;101291.19;5023541;28;21106;-70
2022/05/12 00:03:16;;;;;;;17.83;4.30;;;;;;;13.37;77.89;101297.41;5025722;28;20108;-69
2022/05/12 00:05:42;;;;;;;19.65;4.63;;;;;;;13.38;77.21;101302.72;5024641;28;20475;-70
2022/05/12 00:08:07;;;;;;;19.27;4.80;;;;;;;13.33;77.77;101310.84;5025494;28;20037;-70
2022/05/12 00:10:33;;;;;;;15.63;4.95;;;;;;;13.27;78.09;101310.94;5024891;28;20045;-70
2022/05/12 00:12:59;;;;;;;18.95;4.70;;;;;;;13.21;78.11;101307.19;5025021;28;20048;-70
2022/05/12 00:15:27;;;;;;;18.98;5.25;;;;;;;13.18;78.45;101321.47;5025397;28;20029;-70
2022/05/12 00:17:53;;;;;;;19.50;4.68;;;;;;;13.14;78.89;101315.56;5026674;28;20376;-70
2022/05/12 00:20:21;;;;;;;21.45;5.18;;;;;;;13.11;78.60;101323.47;5025257;28;20025;-70
2022/05/12 00:22:46;;;;;;;16.65;4.68;;;;;;;13.10;78.70;101321.78;5023375;28;20128;-70
2022/05/12 00:25:18;;;;;;;20.42;4.60;;;;;;;13.02;78.58;101324.88;5022427;28;20116;-70
2022/05/12 00:27:43;;;;;;;20.73;4.55;;;;;;;12.98;78.29;101330.88;5006119;28;20030;-71
2022/05/12 00:30:10;;;;;;;20.15;4.75;;;;;;;12.93;78.19;101332.66;5012834;28;20810;-70
2022/05/12 00:32:38;;;;;;;17.55;4.55;;;;;;;12.89;78.37;101328.69;5026623;28;20040;-70
2022/05/12 00:35:05;;;;;;;18.42;4.53;;;;;;;12.87;78.50;101328.91;5026290;28;20080;-71
2022/05/12 00:37:31;;;;;;;15.35;4.93;;;;;;;12.84;78.42;101345.09;5023675;28;20082;-70
2022/05/12 00:39:56;;;;;;;18.02;4.15;;;;;;;12.79;78.56;101351.31;5025770;28;20113;-70
2022/05/12 00:42:22;;;;;;;16.42;4.57;;;;;;;12.75;78.30;101355.59;5014393;28;20704;-71
2022/05/12 00:44:47;;;;;;;17.17;4.65;;;;;;;12.71;78.29;101354.38;5024415;28;20078;-70
2022/05/12 00:47:12;;;;;;;18.17;4.85;;;;;;;12.68;77.87;101357.59;5023141;28;20037;-70
2022/05/12 00:49:40;;;;;;;16.63;4.68;;;;;;;12.63;78.22;101358.31;5024682;28;20501;-70
2022/05/12 00:52:26;;;;;;;12.98;4.88;;;;;;;12.61;78.19;101354.06;5025705;28;20122;-70
2022/05/12 00:54:57;;;;;;;17.10;4.60;;;;;;;12.60;78.40;101357.91;5024774;28;20753;-71
2022/05/12 00:57:47;;;;;;;15.82;3.90;;;;;;;12.62;78.17;101358.50;5024567;28;20099;-70
2022/05/12 01:00:14;;;;;;;15.82;4.35;;;;;;;12.49;78.40;101366.97;5023460;28;20037;-71
2022/05/12 01:02:41;;;;;;;19.13;4.43;;;;;;;12.43;78.84;101363.22;5025677;28;20044;-65
2022/05/12 01:05:08;;;;;;;13.87;4.13;;;;;;;12.39;78.73;101368.34;5024800;28;20129;-70
2022/05/12 01:07:34;;;;;;;13.40;4.03;;;;;;;12.38;78.83;101360.31;5025247;28;20300;-70
2022/05/12 01:10:01;;;;;;;12.57;3.63;;;;;;;12.32;78.61;101366.75;5023302;28;20041;-70
2022/05/12 01:12:26;;;;;;;13.75;4.22;;;;;;;12.27;78.89;101359.19;5021091;28;20100;-69
2022/05/12 01:14:52;;;;;;;14.13;3.63;;;;;;;12.23;78.76;101363.44;5025741;28;20037;-70
2022/05/12 01:17:19;;;;;;;14.73;3.72;;;;;;;12.18;78.51;101371.56;5024858;28;20040;-70
2022/05/12 01:19:45;;;;;;;11.38;3.92;;;;;;;12.14;78.53;101378.59;5024166;28;20025;-70
2022/05/12 01:22:37;;;;;;;10.95;3.70;;;;;;;12.12;78.89;101380.75;5023466;28;20036;-70
2022/05/12 01:25:08;;;;;;;12.02;3.35;;;;;;;12.12;78.84;101389.00;5004793;28;20030;-70
2022/05/12 01:27:34;;;;;;;12.25;3.47;;;;;;;12.05;79.02;101388.19;5022633;28;20488;-69
2022/05/12 01:29:59;;;;;;;8.73;3.28;;;;;;;11.98;78.58;101391.03;5023849;28;20033;-70
2022/05/12 01:32:28;;;;;;;7.45;3.10;;;;;;;11.98;79.42;101395.69;5023607;28;20479;-69
2022/05/12 01:34:54;;;;;;;9.30;3.47;;;;;;;11.93;78.98;101399.13;5024749;28;20029;-70
2022/05/12 01:37:20;;;;;;;16.17;3.63;;;;;;;11.89;79.31;101395.97;5022203;28;20033;-70
2022/05/12 01:39:45;;;;;;;12.55;3.05;;;;;;;11.85;79.48;101393.91;5022194;28;20033;-70
2022/05/12 01:42:11;;;;;;;11.90;3.47;;;;;;;11.82;79.44;101400.72;5023952;28;20021;-70
2022/05/12 01:44:37;;;;;;;11.30;3.25;;;;;;;11.83;79.36;101399.63;5021166;28;20043;-71
2022/05/12 01:47:04;;;;;;;10.77;3.70;;;;;;;11.79;79.53;101416.78;5024299;28;20030;-70
2022/05/12 01:49:29;;;;;;;10.15;3.28;;;;;;;11.76;79.67;101414.47;5022237;28;20102;-70
2022/05/12 01:51:56;;;;;;;12.25;3.95;;;;;;;11.71;79.98;101417.94;5015544;28;20046;-71
2022/05/12 01:54:23;;;;;;;10.43;3.80;;;;;;;11.70;79.61;101418.97;5013560;28;20056;-71
2022/05/12 01:56:48;;;;;;;10.70;3.80;;;;;;;11.61;79.98;101426.69;5021358;28;20068;-70
2022/05/12 01:59:14;;;;;;;9.43;3.40;;;;;;;11.63;80.02;101424.53;5023661;28;20071;-70
2022/05/12 02:01:39;;;;;;;8.68;3.30;;;;;;;11.57;80.08;101419.09;5023070;28;20032;-70
2022/05/12 02:04:05;;;;;;;9.35;3.40;;;;;;;11.54;80.24;101417.63;5024033;28;20076;-70
2022/05/12 02:06:33;;;;;;;11.95;3.67;;;;;;;11.45;80.29;101432.69;5022163;28;20026;-70
2022/05/12 02:08:59;;;;;;;9.07;3.35;;;;;;;11.42;80.69;101439.50;5022242;28;20388;-70
2022/05/12 02:11:25;;;;;;;12.23;3.60;;;;;;;11.41;80.64;101443.31;5023059;28;20183;-70
2022/05/12 02:13:50;;;;;;;16.00;3.97;;;;;;;11.38;80.98;101448.41;5021755;28;20026;-70
2022/05/12 02:16:16;;;;;;;11.80;3.58;;;;;;;11.36;80.79;101440.41;5023544;28;20503;-69
2022/05/12 02:18:43;;;;;;;7.63;3.50;;;;;;;11.31;80.67;101447.63;5023812;28;20033;-70
2022/05/12 02:21:08;;;;;;;10.80;4.03;;;;;;;11.23;80.94;101445.13;5023743;28;20033;-70
2022/05/12 02:23:34;;;;;;;10.57;3.35;;;;;;;11.20;81.29;101451.91;5022442;28;20033;-70
2022/05/12 02:25:59;;;;;;;11.90;3.60;;;;;;;11.18;81.56;101454.03;5021276;28;20151;-70
2022/05/12 02:28:24;;;;;;;11.27;3.50;;;;;;;11.14;81.28;101453.63;5022505;28;20045;-70
2022/05/12 02:30:49;;;;;;;10.02;5.00;;;;;;;11.07;81.47;101457.47;5023844;28;20115;-71
2022/05/12 02:33:15;;;;;;;14.05;5.32;;;;;;;11.05;81.80;101454.09;5021546;28;20033;-70
2022/05/12 02:35:40;;;;;;;12.15;4.97;;;;;;;11.07;82.00;101460.22;5021391;28;20033;-70
2022/05/12 02:38:07;;;;;;;11.75;5.53;;;;;;;11.06;82.12;101466.81;5022064;28;20029;-69
2022/05/12 02:40:32;;;;;;;15.38;4.63;;;;;;;10.98;82.24;101464.28;5021984;28;20036;-70
2022/05/12 02:42:58;;;;;;;17.23;5.20;;;;;;;10.97;82.06;101468.94;5023602;28;20025;-70
2022/05/12 02:45:24;;;;;;;13.18;4.90;;;;;;;10.96;82.41;101471.91;5022220;28;20168;-71
2022/05/12 02:47:49;;;;;;;10.80;3.95;;;;;;;10.93;82.89;101480.59;5023045;28;20443;-70
2022/05/12 02:50:16;;;;;;;14.15;4.85;;;;;;;10.94;83.03;101482.28;5021907;28;20022;-70
2022/05/12 02:52:42;;;;;;;15.23;4.80;;;;;;;10.89;82.64;101489.25;5023198;28;20020;-71
2022/05/12 02:55:09;;;;;;;16.05;4.60;;;;;;;10.84;83.07;101483.56;5022361;28;20396;-71
2022/05/12 02:57:34;;;;;;;17.92;5.80;;;;;;;10.85;83.22;101488.03;5022967;28;20731;-70
2022/05/12 03:00:00;;;;;;;15.98;4.75;;;;;;;10.90;82.79;101490.13;5022674;28;20112;-70
2022/05/12 03:02:25;;;;;;;14.68;4.80;;;;;;;10.90;82.81;101484.63;5020115;28;20034;-70
2022/05/12 03:04:50;;;;;;;21.08;5.13;;;;;;;10.83;83.03;101483.78;5023469;28;20029;-70
2022/05/12 03:07:15;;;;;;;15.75;5.05;;;;;;;10.81;83.35;101486.75;5022791;28;20033;-71
2022/05/12 03:09:41;;;;;;;22.38;5.88;;;;;;;10.84;83.75;101486.31;5022562;28;20163;-71
2022/05/12 03:12:06;;;;;;;19.55;5.25;;;;;;;10.79;83.48;101486.13;5018541;28;20487;-70
2022/05/12 03:14:32;;;;;;;19.15;5.40;;;;;;;10.78;83.65;101487.19;5021858;28;20026;-70
2022/05/12 03:16:57;;;;;;;20.80;6.18;;;;;;;10.81;84.09;101496.91;5023412;28;20506;-69
2022/05/12 03:19:22;;;;;;;17.42;5.70;;;;;;;10.81;84.34;101492.25;5023052;28;20030;-70
2022/05/12 03:21:49;;;;;;;20.70;6.30;;;;;;;10.80;84.09;101498.00;5021050;28;20476;-71
2022/05/12 03:24:16;;;;;;;18.70;6.00;;;;;;;10.77;84.03;101503.91;5022740;28;20013;-71
2022/05/12 03:26:41;;;;;;;22.38;5.88;;;;;;;10.74;84.16;101504.31;5022691;28;20033;-70
2022/05/12 03:29:06;;;;;;;22.88;6.50;;;;;;;10.70;84.63;101495.69;5021031;28;20041;-70
2022/05/12 03:31:32;;;;;;;18.08;6.20;;;;;;;10.69;84.38;101495.88;5020111;28;20033;-70
2022/05/12 03:33:59;;;;;;;22.23;6.60;;;;;;;10.67;84.63;101498.84;5021277;28;20074;-70
2022/05/12 03:36:25;;;;;;;22.05;6.90;;;;;;;10.65;84.94;101500.97;5022185;28;20021;-70
2022/05/12 03:38:50;;;;;;;27.40;7.55;;;;;;;10.59;84.69;101513.69;5021540;28;20503;-70
2022/05/12 03:41:15;;;;;;;24.95;7.57;;;;;;;10.56;84.71;101516.00;5020659;28;20025;-69
2022/05/12 03:46:25;;;;;;;23.27;7.57;;;;;;;10.51;84.81;101529.53;5020324;28;20036;-69
2022/05/12 03:48:50;;;;;;;25.58;8.68;;;;;;;10.50;84.89;101533.34;5022233;28;20033;-69
2022/05/12 03:51:16;;;;;;;26.77;9.02;;;;;;;10.52;85.77;101528.47;5019158;28;20037;-69
2022/05/12 03:53:41;;;;;;;28.60;10.48;;;;;;;10.53;86.33;101535.63;5020512;28;20069;-69
2022/05/12 03:56:08;;;;;;;29.10;9.50;;;;;;;10.51;85.48;101544.09;5023316;28;20060;-69
2022/05/12 03:58:34;;;;;;;34.78;10.13;;;;;;;10.55;86.52;101541.78;5021115;28;20083;-69
2022/05/12 04:01:00;;;;;;;32.22;10.93;;;;;;;10.50;85.99;101545.16;5019673;28;20033;-69
2022/05/12 04:03:26;;;;;;;27.33;10.18;;;;;;;10.51;86.30;101546.00;5021459;28;20558;-69
2022/05/12 04:05:53;;;;;;;32.10;12.82;;;;;;;10.50;86.83;101558.06;5021770;28;20419;-69
2022/05/12 04:08:18;;;;;;;36.80;11.98;;;;;;;10.43;87.45;101555.28;5020001;28;20056;-69
2022/05/12 04:10:43;;;;;;;36.05;12.13;;;;;;;10.44;87.19;101559.75;5021576;28;20040;-70
2022/05/12 04:13:08;;;;;;;33.75;11.98;;;;;;;10.47;87.50;101566.72;5020969;28;20553;-69
2022/05/12 04:15:34;;;;;;;34.70;12.90;;;;;;;10.39;87.59;101565.88;5021969;28;20025;-70
2022/05/12 04:18:02;;;;;;;31.98;13.25;;;;;;;10.41;88.14;101564.81;5020109;28;20385;-70
2022/05/12 04:20:29;;;;;;;40.95;13.15;;;;;;;10.44;88.13;101569.88;5020367;28;20032;-70
2022/05/12 04:22:55;;;;;;;46.10;14.95;;;;;;;10.47;88.51;101574.94;5003035;28;20030;-70
2022/05/12 04:25:21;;;;;;;37.95;15.10;;;;;;;10.47;88.48;101575.78;5001671;28;20042;-69
2022/05/12 04:27:46;;;;;;;39.40;14.32;;;;;;;10.47;88.34;101572.19;5007434;28;20117;-71
2022/05/12 04:30:14;;;;;;;36.45;13.85;;;;;;;10.48;88.60;101576.63;5021476;28;20040;-70
2022/05/12 04:32:40;;;;;;;41.47;14.77;;;;;;;10.51;88.69;101589.94;5026965;28;20026;-70
2022/05/12 04:35:11;;;;;;;46.58;16.38;;;;;;;10.52;89.20;101597.13;5025160;28;20474;-70
2022/05/12 04:37:37;;;;;;;43.00;16.85;;;;;;;10.54;88.91;101589.50;5021544;28;20025;-70
2022/05/12 04:40:15;;;;;;;39.30;17.15;;;;;;;10.60;89.00;101591.44;5024593;28;20048;-70
2022/05/12 04:42:41;;;;;;;46.15;18.35;;;;;;;10.62;89.26;101597.53;5024971;28;20473;-70
2022/05/12 04:45:08;;;;;;;47.83;18.45;;;;;;;10.62;89.34;101597.53;5024169;28;20017;-70
2022/05/12 04:47:34;;;;;;;47.53;18.33;;;;;;;10.65;89.34;101595.22;5024855;28;20523;-69
2022/05/12 04:50:00;;;;;;;45.85;18.85;;;;;;;10.65;89.67;101599.88;5025139;28;20154;-69
2022/05/12 04:52:26;;;;;;;53.40;19.33;;;;;;;10.66;89.80;101604.31;5024001;28;20094;-70
2022/05/12 04:54:54;;;;;;;54.20;20.95;;;;;;;10.67;90.46;101614.22;5024311;28;20056;-69
2022/05/12 04:57:20;;;;;;;53.58;21.17;;;;;;;10.69;90.56;101616.75;5023472;28;20439;-69
2022/05/12 04:59:45;;;;;;;58.35;20.95;;;;;;;10.70;90.70;101612.97;5023544;28;20063;-69
2022/05/12 05:02:11;;;;;;;58.45;23.48;;;;;;;10.74;91.04;101615.06;5023498;28;20091;-70
2022/05/12 05:04:36;;;;;;;59.33;23.27;;;;;;;10.78;91.27;101618.25;5037582;28;20037;-70
2022/05/12 05:07:01;;;;;;;57.25;23.55;;;;;;;10.80;91.08;101625.22;5023973;28;20079;-69
2022/05/12 05:09:27;;;;;;;63.35;24.05;;;;;;;10.88;91.09;101624.13;5017233;28;20017;-70
2022/05/12 05:11:52;;;;;;;64.68;25.25;;;;;;;10.91;91.05;101632.81;5024931;28;20624;-70
2022/05/12 05:14:19;;;;;;;59.50;24.05;;;;;;;10.94;90.77;101638.94;5024969;28;20026;-69
2022/05/12 05:16:45;;;;;;;60.80;24.80;;;;;;;11.00;91.52;101633.44;5022949;28;20160;-70
2022/05/12 05:19:10;;;;;;;60.72;25.05;;;;;;;11.05;91.72;101647.38;5022850;28;20112;-70
2022/05/12 05:21:35;;;;;;;64.45;25.35;;;;;;;11.12;91.49;101641.88;5023625;28;20029;-69
2022/05/12 05:24:00;;;;;;;67.22;27.08;;;;;;;11.16;91.24;101640.38;5024195;28;20364;-69
2022/05/12 05:26:25;;;;;;;58.58;24.17;;;;;;;11.22;91.47;101656.00;5024404;28;20045;-70
2022/05/12 05:28:51;;;;;;;67.65;26.77;;;;;;;11.26;91.45;101640.78;5020666;28;20029;-69
2022/05/12 05:31:16;;;;;;;58.05;24.90;;;;;;;11.32;92.03;101650.06;5024233;28;20483;-70
2022/05/12 05:33:42;;;;;;;55.35;24.48;;;;;;;11.41;91.52;101646.88;5022144;28;20033;-70
2022/05/12 05:36:07;;;;;;;45.20;23.00;;;;;;;11.47;91.25;101652.56;5022427;28;20083;-70
2022/05/12 05:38:32;;;;;;;48.78;23.67;;;;;;;11.53;91.53;101659.94;5021272;28;20856;-70
2022/05/12 05:40:58;;;;;;;50.30;23.20;;;;;;;11.58;91.42;101668.38;5024232;28;20034;-70
2022/05/12 05:43:23;;;;;;;44.05;22.63;;;;;;;11.63;91.23;101672.16;5023059;28;20113;-70
2022/05/12 05:45:50;;;;;;;46.67;23.38;;;;;;;11.68;91.87;101682.53;5021145;28;20105;-70
2022/05/12 05:48:15;;;;;;;43.55;23.00;;;;;;;11.70;91.90;101678.47;5023988;28;20029;-69
2022/05/12 05:53:31;;;;;;;49.17;23.25;;;;;;;11.84;91.63;101694.97;5015873;28;20044;-70
2022/05/12 05:55:58;;;;;;;36.08;22.08;;;;;;;11.86;91.71;101692.84;5020000;28;20061;-70
2022/05/12 05:58:25;;;;;;;43.13;23.08;;;;;;;11.91;91.81;101702.16;5022736;28;20022;-70
2022/05/12 06:00:51;;;;;;;41.22;21.73;;;;;;;12.00;91.01;101701.88;5022014;28;20414;-72
2022/05/12 06:03:17;;;;;;;41.10;22.75;;;;;;;12.07;90.65;101703.56;5021640;28;20448;-71
2022/05/12 06:05:43;;;;;;;42.03;22.60;;;;;;;12.08;91.29;101715.41;5022300;28;20081;-70
2022/05/12 06:08:12;;;;;;;39.40;22.10;;;;;;;12.17;90.60;101712.19;5022612;28;20041;-72
2022/05/12 06:10:38;;;;;;;38.50;21.70;;;;;;;12.25;90.41;101724.00;5022109;28;20102;-70
2022/05/12 06:13:04;;;;;;;40.47;22.80;;;;;;;12.31;90.48;101728.63;5023268;28;20483;-69
2022/05/12 06:15:29;;;;;;;38.92;22.33;;;;;;;12.38;90.37;101729.44;5023310;28;20116;-70
2022/05/12 06:17:55;;;;;;;38.92;21.48;;;;;;;12.42;90.45;101728.78;5022853;28;20057;-70
2022/05/12 06:20:21;;;;;;;36.67;21.23;;;;;;;12.50;89.33;101733.19;5019284;28;20488;-69
2022/05/12 06:22:46;;;;;;;38.50;21.63;;;;;;;12.56;89.41;101729.53;5023499;28;20322;-70
2022/05/12 06:25:14;;;;;;;38.92;21.52;;;;;;;12.65;89.12;101735.63;5022015;28;20029;-70
2022/05/12 06:27:39;;;;;;;36.95;20.75;;;;;;;12.75;88.31;101741.47;5021416;28;20034;-66
2022/05/12 06:30:06;;;;;;;36.38;20.23;;;;;;;12.79;88.18;101745.50;5023287;28;20392;-70
2022/05/12 06:32:31;;;;;;;38.80;19.55;;;;;;;12.84;87.32;101739.31;5021005;28;20033;-70
2022/05/12 06:34:56;;;;;;;36.42;20.67;;;;;;;12.92;87.54;101737.09;5023126;28;20033;-70
2022/05/12 06:37:22;;;;;;;33.80;19.67;;;;;;;12.99;86.72;101743.41;5022662;28;20045;-70
2022/05/12 06:39:47;;;;;;;26.15;17.83;;;;;;;13.12;85.55;101736.09;5022837;28;20104;-70
2022/05/12 06:42:15;;;;;;;30.67;16.85;;;;;;;13.17;84.74;101741.78;5022286;28;20060;-69
2022/05/12 06:44:42;;;;;;;30.13;17.45;;;;;;;13.29;83.29;101747.44;5022579;28;20025;-69
2022/05/12 06:47:09;;;;;;;33.22;18.63;;;;;;;13.32;83.83;101752.50;5023731;28;20033;-69
2022/05/12 06:49:35;;;;;;;30.70;16.75;;;;;;;13.41;82.56;101763.00;5023058;28;20099;-70
2022/05/12 06:52:01;;;;;;;26.67;15.93;;;;;;;13.50;82.23;101761.66;5022920;28;20025;-70
2022/05/12 06:54:28;;;;;;;29.65;17.20;;;;;;;13.68;81.69;101760.81;5018117;28;20400;-70
2022/05/12 06:56:53;;;;;;;32.28;16.60;;;;;;;13.81;80.76;101768.13;5023987;28;20032;-70
2022/05/12 06:59:18;;;;;;;30.63;16.55;;;;;;;13.99;81.19;101768.13;5018557;28;20037;-70
2022/05/12 07:01:43;;;;;;;31.45;16.38;;;;;;;14.09;79.52;101766.72;5005929;28;20091;-70
2022/05/12 07:04:09;;;;;;;26.23;15.68;;;;;;;14.24;78.50;101767.16;5014674;28;20120;-69
2022/05/12 07:06:34;;;;;;;29.70;15.70;;;;;;;14.21;77.54;101762.13;5016480;28;20037;-70
2022/05/12 07:08:59;;;;;;;31.75;15.15;;;;;;;14.34;77.88;101772.97;5016861;28;20040;-70
2022/05/12 07:11:25;;;;;;;27.52;15.45;;;;;;;14.40;76.87;101777.59;5018826;28;20519;-70
2022/05/12 07:13:50;;;;;;;23.88;14.63;;;;;;;14.60;75.76;101773.72;5018548;28;20033;-70
2022/05/12 07:16:15;;;;;;;28.60;16.15;;;;;;;14.74;74.29;101769.69;5021992;28;20041;-70
2022/05/12 07:18:40;;;;;;;27.98;15.90;;;;;;;14.67;73.64;101777.25;5018466;28;20029;-71
2022/05/12 07:26:39;;;;;;;27.85;13.85;;;;;;;15.18;72.17;101784.94;5015646;28;20400;-71
2022/05/12 07:29:11;;;;;;;27.65;13.85;;;;;;;15.10;71.17;101792.72;5019874;28;20097;-70
2022/05/12 07:31:37;;;;;;;23.92;14.52;;;;;;;15.28;70.97;101792.66;5019700;28;20029;-70
2022/05/12 07:34:03;;;;;;;21.23;13.52;;;;;;;15.60;69.93;101787.59;5021792;28;20037;-70
2022/05/12 07:36:35;;;;;;;20.50;12.38;;;;;;;15.74;69.08;101793.78;5020388;28;20025;-70
2022/05/12 07:39:01;;;;;;;20.17;12.02;;;;;;;16.08;69.00;101794.81;5017912;28;20025;-69
2022/05/12 07:41:27;;;;;;;20.48;10.95;;;;;;;15.92;64.47;101796.41;5014992;28;20147;-69
2022/05/12 07:43:54;;;;;;;23.10;12.63;;;;;;;15.65;66.12;101798.00;5020834;28;20086;-70
2022/05/12 07:46:23;;;;;;;27.05;13.77;;;;;;;15.51;67.66;101808.41;5020136;28;20067;-69
2022/05/12 07:48:49;;;;;;;25.85;14.07;;;;;;;15.55;67.35;101806.84;5021028;28;20026;-69
2022/05/12 07:51:17;;;;;;;21.45;11.65;;;;;;;15.66;66.53;101802.44;5014407;28;20029;-69
2022/05/12 07:53:42;;;;;;;16.42;11.27;;;;;;;15.77;65.61;101794.13;5017620;28;20046;-69
2022/05/12 07:56:08;;;;;;;20.55;11.00;;;;;;;15.80;64.41;101799.19;5016118;28;20025;-69
2022/05/12 07:58:35;;;;;;;20.58;11.25;;;;;;;15.91;64.09;101804.94;5019965;28;20064;-70
2022/05/12 08:01:00;;;;;;;20.30;10.60;;;;;;;15.96;62.21;101805.06;5021248;28;20060;-70
2022/05/12 08:03:26;;;;;;;17.75;9.95;;;;;;;16.12;63.82;101806.22;5016671;28;20029;-70
2022/05/12 08:05:52;;;;;;;18.85;10.55;;;;;;;16.27;62.09;101801.00;5022102;28;20029;-70
2022/05/12 08:08:18;;;;;;;19.65;8.77;;;;;;;16.37;60.72;101804.00;5024379;28;20030;-70
2022/05/12 08:10:43;;;;;;;20.63;9.75;;;;;;;16.53;61.01;101799.63;5022805;28;20111;-70
2022/05/12 08:13:14;;;;;;;16.83;8.25;;;;;;;16.74;59.74;101811.97;5023215;28;20029;-70
2022/05/12 08:15:41;;;;;;;17.67;8.25;;;;;;;16.59;59.16;101810.56;5026841;28;20447;-70
2022/05/12 08:18:08;;;;;;;16.10;7.97;;;;;;;16.45;59.72;101814.72;5026718;28;20472;-70
2022/05/12 08:20:34;;;;;;;16.23;8.38;;;;;;;16.50;60.48;101816.75;5026464;28;20112;-70
2022/05/12 08:22:59;;;;;;;13.40;7.75;;;;;;;16.54;60.09;101815.16;5023770;28;20025;-70
2022/05/12 08:25:24;;;;;;;12.30;5.40;;;;;;;16.41;55.82;101826.53;5024932;28;20041;-71
2022/05/12 08:27:49;;;;;;;14.77;5.40;;;;;;;16.33;57.15;101811.13;5027110;28;20379;-70
2022/05/12 08:30:17;;;;;;;11.35;5.80;;;;;;;16.59;58.13;101818.88;5024986;28;20071;-70
2022/05/12 08:32:43;;;;;;;14.15;5.60;;;;;;;16.86;56.03;101812.75;5015581;28;20029;-70
2022/05/12 08:35:08;;;;;;;12.70;5.03;;;;;;;17.21;55.27;101809.78;5024294;28;22042;-70
2022/05/12 08:37:34;;;;;;;12.48;4.55;;;;;;;17.24;51.46;101814.00;5023084;28;20528;-70
2022/05/12 08:40:00;;;;;;;11.00;4.55;;;;;;;17.04;51.59;101823.66;5023670;28;20048;-71
2022/05/12 08:42:41;;;;;;;11.90;4.18;;;;;;;16.99;50.98;101819.94;5025965;28;20112;-71
2022/05/12 08:45:09;;;;;;;11.23;4.30;;;;;;;16.85;51.92;101822.19;5025551;28;20483;-70
2022/05/12 08:47:44;;;;;;;10.32;4.03;;;;;;;17.02;51.83;101827.75;5021575;28;20037;-72
2022/05/12 08:50:23;;;;;;;10.95;4.70;;;;;;;17.21;50.22;101820.88;5023167;28;20034;-71
2022/05/12 08:52:53;;;;;;;10.93;4.32;;;;;;;17.48;50.14;101820.19;5024735;28;20029;-70
2022/05/12 08:55:30;;;;;;;9.60;5.00;;;;;;;17.73;50.62;101830.91;5021321;28;20042;-71
2022/05/12 08:58:01;;;;;;;11.45;4.18;;;;;;;17.59;49.10;101828.47;5023694;28;20037;-71
2022/05/12 09:00:31;;;;;;;14.40;4.03;;;;;;;17.46;48.14;101834.34;5025497;28;20068;-70
2022/05/12 09:03:49;;;;;;;10.20;3.58;;;;;;;17.57;51.05;101825.09;5026113;28;20030;-70
2022/05/12 09:06:19;;;;;;;;;;;;;;;17.73;49.20;101828.13;5007440;28;20057;-70
2022/05/12 09:08:58;;;;;;;8.48;3.53;;;;;;;17.50;49.14;101837.47;5020868;28;19920;-71
2022/05/12 09:11:40;;;;;;;9.23;3.67;;;;;;;17.95;49.87;101837.38;5021883;28;20033;-71
2022/05/12 09:14:14;;;;;;;9.35;4.25;;;;;;;18.38;47.45;101842.13;5024597;28;20040;-71
2022/05/12 09:16:39;;;;;;;11.73;4.15;;;;;;;18.20;45.24;101844.34;5024110;28;20037;-71
2022/05/12 09:19:04;;;;;;;10.05;3.47;;;;;;;18.29;46.71;101838.09;5023683;28;20021;-71
2022/05/12 09:21:36;;;;;;;10.63;3.40;;;;;;;19.58;44.00;101844.78;5020997;28;20029;-71
2022/05/12 09:24:03;;;;;;;8.75;2.97;;;;;;;20.81;39.27;101837.94;5025601;28;20292;-71
2022/05/12 09:26:31;;;;;;;8.80;3.50;;;;;;;20.94;41.29;101840.19;5019190;28;20059;-71
2022/05/12 09:29:20;;;;;;;8.27;3.70;;;;;;;21.30;41.91;101839.41;5019853;28;20026;-71
2022/05/12 09:31:49;;;;;;;11.07;3.50;;;;;;;21.00;40.25;101841.06;5006103;28;20116;-71
2022/05/12 09:34:35;;;;;;;11.57;3.88;;;;;;;22.37;38.11;101834.53;5019708;28;20128;-71
2022/05/12 09:37:13;;;;;;;7.25;2.53;;;;;;;21.24;37.66;101838.56;5020704;28;20060;-72
2022/05/12 09:39:46;;;;;;;11.48;3.22;;;;;;;19.82;40.05;101847.19;5023688;28;20055;-71
2022/05/12 09:42:20;;;;;;;10.93;3.95;;;;;;;19.56;41.33;101843.34;5017995;28;20033;-70
2022/05/12 09:44:54;;;;;;;11.82;3.72;;;;;;;19.40;41.99;101842.38;5017961;28;20033;-71
2022/05/12 09:47:19;;;;;;;9.50;3.55;;;;;;;19.80;40.55;101846.63;5023928;28;20049;-71
2022/05/12 09:49:46;;;;;;;11.32;3.50;;;;;;;19.36;41.16;101839.31;5023701;28;20764;-70
2022/05/12 09:52:35;;;;;;;8.68;3.33;;;;;;;19.84;41.74;101839.41;5024082;28;20729;-71
2022/05/12 09:55:15;;;;;;;10.27;2.90;;;;;;;22.92;37.14;101832.59;5022150;28;20467;-71
2022/05/12 09:57:48;;;;;;;7.90;3.20;;;;;;;24.94;31.44;101827.13;5023514;28;20120;-71
2022/05/12 10:00:43;;;;;;;8.73;2.58;;;;;;;25.54;30.62;101827.28;5022850;28;20041;-71
2022/05/12 10:09:19;;;;;;;8.63;2.72;;;;;;;26.64;29.40;101820.94;5010598;28;20083;-70
2022/05/12 10:12:00;;;;;;;9.68;2.97;;;;;;;27.22;28.11;101820.19;5012083;28;20044;-71
2022/05/12 10:14:42;;;;;;;7.18;2.63;;;;;;;26.14;27.02;101824.50;5016333;28;20033;-71
2022/05/12 10:17:21;;;;;;;8.75;2.70;;;;;;;26.02;28.50;101827.00;5020074;28;20061;-71
2022/05/12 10:19:47;;;;;;;8.95;3.40;;;;;;;25.64;28.27;101831.91;5024705;28;20038;-71
2022/05/12 10:22:18;;;;;;;10.15;2.97;;;;;;;26.00;27.99;101825.63;5022411;28;20330;-66
2022/05/12 10:25:06;;;;;;;9.55;3.15;;;;;;;26.70;26.92;101825.31;5023979;28;20049;-70
2022/05/12 10:28:08;;;;;;;9.88;3.40;;;;;;;27.79;28.28;101825.25;5021404;28;20033;-71
2022/05/12 10:30:43;;;;;;;12.18;3.78;;;;;;;26.49;27.58;101836.19;5023303;28;20042;-71
2022/05/12 10:33:29;;;;;;;9.85;3.38;;;;;;;24.28;30.95;101840.06;5024638;28;20042;-71
2022/05/12 10:36:29;;;;;;;11.07;3.33;;;;;;;22.91;32.25;101835.66;5023847;28;20394;-70
2022/05/12 10:39:19;;;;;;;10.43;2.75;;;;;;;23.29;31.40;101825.59;5003635;28;20311;-71
2022/05/12 10:42:18;;;;;;;9.45;2.97;;;;;;;25.49;30.18;101823.72;5017370;28;20063;-70
2022/05/12 10:45:01;;;;;;;8.63;3.03;;;;;;;25.56;28.80;101821.38;5012461;28;20037;-71
2022/05/12 10:47:45;;;;;;;6.30;2.92;;;;;;;23.80;31.11;101827.97;5015451;28;20458;-71
2022/05/12 10:50:33;;;;;;;11.45;3.72;;;;;;;22.15;32.64;101825.63;5016691;28;20040;-71
2022/05/12 10:53:17;;;;;;;10.25;3.05;;;;;;;21.94;33.13;101820.06;5009629;28;20041;-71
2022/05/12 10:55:53;;;;;;;10.05;3.20;;;;;;;21.81;33.71;101814.25;5019477;28;20064;-71
2022/05/12 10:58:37;;;;;;;9.50;3.20;;;;;;;22.01;34.92;101820.63;5020333;28;20025;-71
2022/05/12 11:01:12;;;;;;;10.40;3.38;;;;;;;22.02;33.96;101824.25;5021893;28;20029;-71
2022/05/12 11:03:54;;;;;;;10.90;3.63;;;;;;;21.92;33.70;101819.53;5020489;28;20100;-71
2022/05/12 11:06:24;;;;;;;8.82;3.40;;;;;;;21.86;33.92;101812.28;5019805;28;20041;-72
2022/05/12 11:08:59;;;;;;;10.48;3.47;;;;;;;21.77;34.04;101811.16;5022124;28;20443;-72
2022/05/12 11:11:28;;;;;;;8.85;3.10;;;;;;;21.26;33.05;101816.78;5022328;28;20025;-72
2022/05/12 11:14:23;;;;;;;9.02;3.33;;;;;;;21.10;33.55;101817.88;5021091;28;20036;-72
2022/05/12 11:16:51;;;;;;;10.65;3.30;;;;;;;21.25;33.36;101810.34;5023261;28;20039;-72
2022/05/12 11:19:23;;;;;;;12.60;3.35;;;;;;;21.09;33.98;101807.84;5022844;28;20659;-72
2022/05/12 11:22:07;;;;;;;11.35;3.65;;;;;;;21.04;34.59;101805.03;5018558;28;20029;-72
2022/05/12 11:24:55;;;;;;;11.70;3.67;;;;;;;21.30;34.99;101803.09;5021355;28;20033;-72
2022/05/12 11:27:44;;;;;;;11.68;3.97;;;;;;;21.66;34.52;101809.50;5019433;28;20054;-72
2022/05/12 11:30:18;;;;;;;13.65;4.05;;;;;;;21.52;33.33;101806.44;5020766;28;20037;-71
2022/05/12 11:33:16;;;;;;;11.23;3.60;;;;;;;21.95;33.44;101799.38;5015323;28;20124;-71
2022/05/12 11:35:44;;;;;;;13.95;3.88;;;;;;;22.08;31.65;101789.53;5006817;28;20033;-72
2022/05/12 11:38:29;;;;;;;;;;;;;;;22.53;33.05;101784.91;5008515;28;20037;-73
2022/05/12 11:40:55;;;;;;;14.90;3.80;;;;;;;22.93;31.79;101792.25;5019354;28;20551;-72
2022/05/12 11:46:41;;;;;;;10.77;3.47;;;;;;;22.76;32.33;101794.56;5020398;28;20076;-71